| time (UTC) | temp C | wind direction | speed KPH | gust KPH | rain 1hr cm | rain 24hr cm | rain mn cm | humidity % | barometer mb |
| 20260507191525 | 33 | 325 | 1.6 | 8.0 | 0.00 | 0.00 | 0.00 | 11 | 1012.5 |
| 20260507190007 | 32 | 224 | 3.2 | 8.0 | 0.00 | 0.00 | 0.00 | 11 | 1012.8 |
| 20260507184515 | 32 | 274 | 1.6 | 9.7 | 0.00 | 0.00 | 0.00 | 12 | 1012.9 |
| 20260507183018 | 32 | 230 | 1.6 | 6.4 | 0.00 | 0.00 | 0.00 | 14 | 1013.1 |
| 20260507181521 | 31 | 277 | 1.6 | 8.0 | 0.00 | 0.00 | 0.00 | 13 | 1013.2 |
| 20260507180008 | 31 | 228 | 1.6 | 8.0 | 0.00 | 0.00 | 0.00 | 14 | 1013.5 |
| 20260507174516 | 30 | 167 | 1.6 | 6.4 | 0.00 | 0.00 | 0.00 | 14 | 1013.7 |
| 20260507173022 | 30 | 345 | 1.6 | 8.0 | 0.00 | 0.00 | 0.00 | 16 | 1014.0 |
| 20260507171518 | 29 | 143 | 3.2 | 8.0 | 0.00 | 0.00 | 0.00 | 16 | 1014.1 |
| 20260507170040 | 28 | 240 | 1.6 | 8.0 | 0.00 | 0.00 | 0.00 | 18 | 1014.1 |
| 20260507164510 | 28 | 255 | 3.2 | 8.0 | 0.00 | 0.00 | 0.00 | 19 | 1014.3 |
| 20260507163011 | 27 | 162 | 6.4 | 11.3 | 0.00 | 0.00 | 0.00 | 19 | 1014.3 |
| 20260507161519 | 27 | 250 | 1.6 | 8.0 | 0.00 | 0.00 | 0.00 | 20 | 1014.4 |
| 20260507160022 | 26 | 199 | 4.8 | 9.7 | 0.00 | 0.00 | 0.00 | 21 | 1014.4 |
| 20260507154524 | 26 | 155 | 4.8 | 9.7 | 0.00 | 0.00 | 0.00 | 22 | 1014.5 |
| 20260507153011 | 25 | 157 | 3.2 | 8.0 | 0.00 | 0.00 | 0.00 | 24 | 1014.5 |
| 20260507151518 | 24 | 176 | 3.2 | 11.3 | 0.00 | 0.00 | 0.00 | 26 | 1014.5 |
| 20260507150019 | 24 | 196 | 4.8 | 9.7 | 0.00 | 0.00 | 0.00 | 25 | 1014.5 |
| 20260507144523 | 26 | 117 | 3.2 | 12.9 | 0.00 | 0.00 | 0.00 | 17 | 1014.4 |
| 20260507143025 | 25 | 32 | 9.7 | 16.1 | 0.00 | 0.00 | 0.00 | 18 | 1014.4 |
| 20260507141512 | 25 | 36 | 6.4 | 16.1 | 0.00 | 0.00 | 0.00 | 20 | 1014.3 |
| 20260507140016 | 24 | 29 | 4.8 | 14.5 | 0.00 | 0.00 | 0.00 | 21 | 1014.4 |
| 20260507134522 | 21 | 272 | 0.0 | 3.2 | 0.00 | 0.00 | 0.00 | 31 | 1014.2 |
| 20260507133024 | 20 | 248 | 0.0 | 3.2 | 0.00 | 0.00 | 0.00 | 30 | 1014.2 |
| 20260507131528 | 21 | 208 | 0.0 | 3.2 | 0.00 | 0.00 | 0.00 | 30 | 1014.1 |
| 20260507130017 | 21 | 58 | 1.6 | 8.0 | 0.00 | 0.00 | 0.00 | 28 | 1013.9 |
| 20260507124519 | 20 | 352 | 0.0 | 1.6 | 0.00 | 0.00 | 0.00 | 30 | 1013.9 |
| 20260507123025 | 21 | 345 | 0.0 | 8.0 | 0.00 | 0.00 | 0.00 | 28 | 1013.8 |
| 20260507121526 | 20 | 39 | 1.6 | 8.0 | 0.00 | 0.00 | 0.00 | 29 | 1013.9 |
| 20260507120028 | 18 | 347 | 1.6 | 3.2 | 0.00 | 0.00 | 0.00 | 32 | 1013.8 |
| 20260507114518 | 18 | 346 | 0.0 | 3.2 | 0.00 | 0.00 | 0.00 | 32 | 1013.8 |
| 20260507113025 | 18 | 15 | 0.0 | 3.2 | 0.00 | 0.00 | 0.00 | 33 | 1013.8 |
| 20260507111524 | 17 | 338 | 0.0 | 3.2 | 0.00 | 0.00 | 0.00 | 34 | 1013.9 |
| 20260507103024 | 18 | 341 | 0.0 | 3.2 | 0.00 | 0.00 | 0.00 | 31 | 1014.0 |
| 20260507101524 | 19 | 323 | 3.2 | 6.4 | 0.00 | 0.00 | 0.00 | 30 | 1014.2 |
| 20260507100029 | 19 | 347 | 3.2 | 6.4 | 0.00 | 0.00 | 0.00 | 30 | 1014.3 |
| 20260507093019 | 18 | 349 | 1.6 | 3.2 | 0.00 | 0.00 | 0.00 | 31 | 1014.6 |
| 20260507091534 | 18 | 335 | 1.6 | 3.2 | 0.00 | 0.00 | 0.00 | 31 | 1014.6 |
| 20260507090033 | 18 | 330 | 0.0 | 3.2 | 0.00 | 0.00 | 0.00 | 32 | 1014.7 |
| 20260507084532 | 18 | 288 | 0.0 | 1.6 | 0.00 | 0.00 | 0.00 | 32 | 1014.7 |
| 20260507081520 | 19 | 345 | 0.0 | 1.6 | 0.00 | 0.00 | 0.00 | 31 | 1015.1 |
| 20260507080023 | 20 | 351 | 0.0 | 6.4 | 0.00 | 0.00 | 0.00 | 30 | 1015.0 |
| 20260507074524 | 18 | 326 | 0.0 | 0.0 | 0.00 | 0.00 | 0.00 | 32 | 1015.1 |
| 20260507073013 | 18 | 323 | 0.0 | 0.0 | 0.00 | 0.00 | 0.00 | 31 | 1015.1 |
| 20260507071521 | 20 | 323 | 0.0 | 0.0 | 0.00 | 0.00 | 0.00 | 29 | 1015.0 |
| 20260507070024 | 21 | 340 | 0.0 | 3.2 | 0.00 | 0.00 | 0.00 | 27 | 1014.9 |
| 20260507064525 | 21 | 353 | 3.2 | 6.4 | 0.00 | 0.00 | 0.00 | 26 | 1015.0 |
| 20260507063027 | 21 | 348 | 3.2 | 6.4 | 0.00 | 0.00 | 0.00 | 27 | 1014.9 |
| 20260507061515 | 20 | 7 | 0.0 | 3.2 | 0.00 | 0.00 | 0.00 | 29 | 1015.0 |
| 20260507060021 | 20 | 354 | 0.0 | 0.0 | 0.00 | 0.00 | 0.00 | 29 | 1015.0 |
| 20260507054522 | 21 | 354 | 0.0 | 0.0 | 0.00 | 0.00 | 0.00 | 28 | 1015.0 |
| 20260507053026 | 21 | 339 | 1.6 | 1.6 | 0.00 | 0.00 | 0.00 | 28 | 1015.0 |
| 20260507051526 | 20 | 329 | 0.0 | 1.6 | 0.00 | 0.00 | 0.00 | 29 | 1015.1 |
| 20260507050034 | 20 | 330 | 0.0 | 0.0 | 0.00 | 0.00 | 0.00 | 28 | 1015.0 |
| 20260507044522 | 20 | 330 | 0.0 | 0.0 | 0.00 | 0.00 | 0.00 | 29 | 1014.9 |
| 20260507043022 | 20 | 329 | 0.0 | 0.0 | 0.00 | 0.00 | 0.00 | 28 | 1014.7 |
| 20260507041524 | 21 | 330 | 0.0 | 1.6 | 0.00 | 0.00 | 0.00 | 28 | 1014.6 |
| 20260507040026 | 21 | 301 | 0.0 | 1.6 | 0.00 | 0.00 | 0.00 | 28 | 1014.3 |
| 20260507034529 | 21 | 301 | 0.0 | 0.0 | 0.00 | 0.00 | 0.00 | 27 | 1014.1 |
| 20260507033022 | 21 | 301 | 0.0 | 0.0 | 0.00 | 0.00 | 0.00 | 27 | 1014.0 |
| 20260507031507 | 22 | 301 | 0.0 | 0.0 | 0.00 | 0.00 | 0.00 | 26 | 1013.7 |
| 20260507030016 | 23 | 301 | 0.0 | 1.6 | 0.00 | 0.00 | 0.00 | 25 | 1013.7 |
| 20260507024517 | 23 | 278 | 0.0 | 1.6 | 0.00 | 0.00 | 0.00 | 24 | 1013.5 |
| 20260507023029 | 24 | 277 | 0.0 | 3.2 | 0.00 | 0.00 | 0.00 | 23 | 1013.1 |
| 20260507021503 | 25 | 287 | 0.0 | 1.6 | 0.00 | 0.00 | 0.00 | 23 | 1013.0 |
| 20260507020010 | 25 | 219 | 0.0 | 4.8 | 0.00 | 0.00 | 0.00 | 23 | 1012.9 |
| 20260507014513 | 26 | 252 | 0.0 | 3.2 | 0.00 | 0.00 | 0.00 | 22 | 1012.9 |
| 20260507013022 | 26 | 252 | 1.6 | 8.0 | 0.00 | 0.00 | 0.00 | 22 | 1012.9 |
| 20260507011523 | 27 | 207 | 1.6 | 4.8 | 0.00 | 0.00 | 0.00 | 21 | 1012.9 |
| 20260507010009 | 28 | 236 | 0.0 | 4.8 | 0.00 | 0.00 | 0.00 | 20 | 1012.8 |
| 20260507004509 | 28 | 219 | 4.8 | 8.0 | 0.00 | 0.00 | 0.00 | 19 | 1012.7 |
| 20260507003015 | 28 | 247 | 0.0 | 4.8 | 0.00 | 0.00 | 0.00 | 20 | 1012.7 |
| 20260507001520 | 28 | 259 | 1.6 | 8.0 | 0.00 | 0.00 | 0.00 | 20 | 1012.7 |
| 20260507000026 | 28 | 240 | 3.2 | 11.3 | 0.00 | 0.00 | 0.00 | 20 | 1012.8 |
| 20260506234507 | 28 | 199 | 1.6 | 9.7 | 0.00 | 0.00 | 0.00 | 19 | 1012.9 |
| 20260506233015 | 28 | 221 | 4.8 | 9.7 | 0.00 | 0.00 | 0.00 | 19 | 1013.0 |
| 20260506231520 | 28 | 158 | 3.2 | 6.4 | 0.00 | 0.00 | 0.00 | 19 | 1013.0 |
| 20260506230028 | 28 | 8 | 1.6 | 8.0 | 0.00 | 0.00 | 0.00 | 19 | 1013.1 |
| 20260506224507 | 29 | 209 | 1.6 | 9.7 | 0.00 | 0.00 | 0.00 | 20 | 1013.2 |
| 20260506223009 | 28 | 4 | 1.6 | 8.0 | 0.00 | 0.00 | 0.00 | 20 | 1013.3 |
| 20260506221513 | 28 | 352 | 3.2 | 9.7 | 0.00 | 0.00 | 0.00 | 20 | 1013.5 |
| 20260506220019 | 28 | 310 | 3.2 | 14.5 | 0.00 | 0.00 | 0.00 | 20 | 1013.8 |
| 20260506214522 | 27 | 176 | 3.2 | 8.0 | 0.00 | 0.00 | 0.00 | 21 | 1013.9 |
| 20260506213007 | 28 | 39 | 3.2 | 8.0 | 0.00 | 0.00 | 0.00 | 20 | 1014.4 |
| 20260506211511 | 27 | 259 | 1.6 | 6.4 | 0.00 | 0.00 | 0.00 | 20 | 1014.5 |
| 20260506210029 | 28 | 267 | 1.6 | 8.0 | 0.00 | 0.00 | 0.00 | 20 | 1014.8 |
| 20260506204523 | 27 | 273 | 1.6 | 6.4 | 0.00 | 0.00 | 0.00 | 20 | 1015.0 |
| 20260506203026 | 27 | 321 | 3.2 | 8.0 | 0.00 | 0.00 | 0.00 | 20 | 1015.1 |
| 20260506201510 | 27 | 247 | 3.2 | 9.7 | 0.00 | 0.00 | 0.00 | 21 | 1015.2 |
| 20260506200015 | 26 | 223 | 4.8 | 11.3 | 0.00 | 0.00 | 0.00 | 22 | 1015.4 |
| 20260506194518 | 26 | 175 | 1.6 | 8.0 | 0.00 | 0.00 | 0.00 | 21 | 1015.5 |
| 20260506193036 | 26 | 191 | 3.2 | 11.3 | 0.00 | 0.00 | 0.00 | 23 | 1015.6 |